createdAt,value
2019-06-27T00:00:10.577Z,53845.34
2019-06-27T00:02:39.299Z,53838.24
2019-06-27T00:05:08.115Z,53804.77
2019-06-27T00:07:36.905Z,53821.00
2019-06-27T00:10:05.809Z,53819.98
2019-06-27T00:12:34.457Z,53826.07
2019-06-27T00:15:03.089Z,53808.82
2019-06-27T00:17:31.815Z,53826.07
2019-06-27T00:20:00.461Z,53852.44
2019-06-27T00:22:29.111Z,53827.08
2019-06-27T00:24:57.752Z,53829.11
2019-06-27T00:27:26.405Z,53850.41
2019-06-27T00:29:55.054Z,53826.07
2019-06-27T00:32:23.695Z,53824.04
2019-06-27T00:34:52.438Z,53822.01
2019-06-27T00:37:21.083Z,53825.05
2019-06-27T00:39:49.755Z,53833.17
2019-06-27T00:42:18.643Z,53831.14
2019-06-27T00:44:47.279Z,53839.25
2019-06-27T00:47:15.938Z,53843.31
2019-06-27T00:49:44.585Z,53821.00
2019-06-27T00:52:13.296Z,53849.40
2019-06-27T00:54:42.003Z,53812.88
2019-06-27T00:57:14.515Z,53837.23
2019-06-27T00:59:41.091Z,53851.43
2019-06-27T01:02:09.719Z,53834.18
2019-06-27T01:04:38.426Z,53839.25
2019-06-27T01:07:07.047Z,53826.07
2019-06-27T01:09:35.674Z,53870.70
2019-06-27T01:12:04.483Z,53871.71
2019-06-27T01:14:33.126Z,53848.39
2019-06-27T01:17:01.842Z,53843.31
2019-06-27T01:19:30.579Z,53836.21
2019-06-27T01:21:59.193Z,53863.60
2019-06-27T01:24:27.896Z,53848.39
2019-06-27T01:26:56.521Z,53845.34
2019-06-27T01:29:25.183Z,53849.40
2019-06-27T01:31:53.862Z,53859.54
2019-06-27T01:34:22.559Z,53853.46
2019-06-27T01:36:51.199Z,53872.73
2019-06-27T01:39:19.833Z,53863.60
2019-06-27T01:41:48.533Z,53857.52
2019-06-27T01:44:34.713Z,53860.56
2019-06-27T01:47:04.020Z,53874.76
2019-06-27T01:49:32.736Z,53860.56
2019-06-27T01:52:01.482Z,53862.59
2019-06-27T01:54:30.166Z,53884.90
2019-06-27T01:56:58.854Z,53870.70
2019-06-27T01:59:27.501Z,53865.63
2019-06-27T02:01:56.480Z,53852.44
2019-06-27T02:04:25.202Z,53865.63
2019-06-27T02:06:53.834Z,53866.64
2019-06-27T02:09:22.550Z,53860.56
2019-06-27T02:11:51.218Z,53879.83
2019-06-27T02:14:19.826Z,53856.50
2019-06-27T02:16:48.515Z,53864.61
2019-06-27T02:19:17.208Z,53872.73
2019-06-27T02:21:45.858Z,53903.16
2019-06-27T02:24:14.499Z,53879.83
2019-06-27T02:26:43.119Z,53859.54
2019-06-27T02:29:19.810Z,53854.47
2019-06-27T02:31:48.429Z,53878.82
2019-06-27T02:34:17.132Z,53872.73
2019-06-27T02:36:45.766Z,53893.02
2019-06-27T02:39:14.484Z,53892.00
2019-06-27T02:41:43.201Z,53849.40
2019-06-27T02:44:11.820Z,53879.83
2019-06-27T02:46:40.427Z,53868.67
2019-06-27T02:49:09.064Z,53897.07
2019-06-27T02:51:37.687Z,53906.20
2019-06-27T02:54:06.393Z,53928.52
2019-06-27T02:56:35.040Z,53901.13
2019-06-27T02:59:03.667Z,53893.02
2019-06-27T03:01:32.373Z,53884.90
2019-06-27T03:04:01.028Z,53887.95
2019-06-27T03:06:29.668Z,53870.70
2019-06-27T03:08:58.361Z,53887.95
2019-06-27T03:11:27.017Z,53900.12
2019-06-27T03:13:55.728Z,53892.00
2019-06-27T03:16:24.520Z,53876.79
2019-06-27T03:18:53.135Z,53892.00
2019-06-27T03:21:21.768Z,53892.00
2019-06-27T03:23:50.487Z,53862.59
2019-06-27T03:26:19.125Z,53890.99
2019-06-27T03:28:53.339Z,53876.79
2019-06-27T03:31:18.125Z,53909.25
2019-06-27T03:33:46.885Z,53900.12
2019-06-27T03:36:15.486Z,53874.76
2019-06-27T03:38:44.186Z,53900.12
2019-06-27T03:41:12.814Z,53897.07
2019-06-27T03:43:41.521Z,53901.13
2019-06-27T03:46:10.165Z,53895.05
2019-06-27T03:48:38.887Z,53925.48
2019-06-27T03:51:07.523Z,53892.00
2019-06-27T03:53:36.148Z,53903.16
2019-06-27T03:56:04.859Z,53915.34
2019-06-27T03:58:33.630Z,53919.39
2019-06-27T04:01:02.297Z,53875.77
2019-06-27T04:03:30.989Z,53907.22
2019-06-27T04:05:59.604Z,53889.97
2019-06-27T04:08:28.226Z,53897.07
2019-06-27T04:10:56.962Z,53917.36
2019-06-27T04:13:25.689Z,53896.06
2019-06-27T04:15:54.341Z,53879.83
2019-06-27T04:18:22.982Z,53895.05
2019-06-27T04:20:51.585Z,53885.92
2019-06-27T04:23:20.274Z,53932.58
2019-06-27T04:25:48.962Z,53888.96
2019-06-27T04:28:17.587Z,53901.13
2019-06-27T04:30:46.222Z,53902.14
2019-06-27T04:33:15.060Z,53887.95
2019-06-27T04:35:43.677Z,53927.51
2019-06-27T04:38:12.292Z,53915.34
2019-06-27T04:40:40.905Z,53904.18
2019-06-27T04:43:09.648Z,53894.03
2019-06-27T04:45:38.293Z,53899.11
2019-06-27T04:48:06.924Z,53919.39
2019-06-27T04:50:35.561Z,53895.05
2019-06-27T04:53:04.209Z,53907.22
2019-06-27T04:55:32.862Z,53903.16
2019-06-27T04:58:04.524Z,53894.03
2019-06-27T05:00:33.199Z,53922.43
2019-06-27T05:03:01.824Z,53888.96
2019-06-27T05:05:30.435Z,53893.02
2019-06-27T05:07:59.064Z,53897.07
2019-06-27T05:10:27.688Z,53882.87
2019-06-27T05:12:56.310Z,53908.23
2019-06-27T05:15:24.934Z,53913.30
2019-06-27T05:17:53.940Z,53905.19
2019-06-27T05:20:22.583Z,53899.11
2019-06-27T05:22:51.297Z,53909.25
2019-06-27T05:25:29.452Z,53905.19
2019-06-27T05:27:56.487Z,53859.54
2019-06-27T05:30:25.202Z,53895.05
2019-06-27T05:32:53.967Z,53904.18
2019-06-27T05:35:22.604Z,53877.80
2019-06-27T05:37:51.413Z,53882.87
2019-06-27T05:40:20.967Z,53883.89
2019-06-27T05:42:49.603Z,53874.76
2019-06-27T05:45:18.358Z,53881.86
2019-06-27T05:47:46.977Z,53895.05
2019-06-27T05:50:15.698Z,53870.70
2019-06-27T05:52:44.354Z,53909.25
2019-06-27T05:55:13.058Z,53881.86
2019-06-27T05:57:41.666Z,53867.66
2019-06-27T06:00:26.599Z,53864.61
2019-06-27T06:02:40.663Z,53889.97
2019-06-27T06:05:09.389Z,53858.53
2019-06-27T06:07:38.117Z,53895.05
2019-06-27T06:10:06.911Z,53873.75
2019-06-27T06:12:35.542Z,53851.43
2019-06-27T06:15:04.283Z,53868.67
2019-06-27T06:17:32.911Z,53861.57
2019-06-27T06:20:01.544Z,53866.64
2019-06-27T06:22:30.308Z,53856.50
2019-06-27T06:24:59.019Z,53889.97
2019-06-27T06:27:27.795Z,53843.31
2019-06-27T06:29:56.568Z,53858.53
2019-06-27T06:32:25.186Z,53866.64
2019-06-27T06:34:53.873Z,53860.56
2019-06-27T06:37:22.444Z,53861.57
2019-06-27T06:39:51.125Z,53851.43
2019-06-27T06:42:19.834Z,53849.40
2019-06-27T06:44:48.494Z,53859.54
2019-06-27T06:47:17.248Z,53848.39
2019-06-27T06:49:45.853Z,53853.46
2019-06-27T06:52:14.504Z,53865.63
2019-06-27T06:54:43.132Z,53859.54
2019-06-27T06:57:11.865Z,53854.47
2019-06-27T06:59:40.511Z,53867.66
2019-06-27T07:02:09.173Z,53853.46
2019-06-27T07:04:37.789Z,53852.44
2019-06-27T07:07:06.472Z,53851.43
2019-06-27T07:09:35.146Z,53861.57
2019-06-27T07:12:03.930Z,53838.24
2019-06-27T07:14:32.561Z,53875.77
2019-06-27T07:17:01.196Z,53852.44
2019-06-27T07:19:29.809Z,53862.59
2019-06-27T07:21:58.522Z,53840.27
2019-06-27T07:24:27.137Z,53851.43
2019-06-27T07:26:55.792Z,53845.34
2019-06-27T07:29:24.390Z,53865.63
2019-06-27T07:31:52.999Z,53853.46
2019-06-27T07:34:21.706Z,53867.66
2019-06-27T07:36:50.313Z,53836.21
2019-06-27T07:39:19.028Z,53860.56
2019-06-27T07:41:47.693Z,53846.36
2019-06-27T07:44:20.053Z,53863.60
2019-06-27T07:46:46.810Z,53838.24
2019-06-27T07:49:15.400Z,53844.33
2019-06-27T07:51:44.036Z,53846.36
2019-06-27T07:54:12.731Z,53855.48
2019-06-27T07:56:41.361Z,53835.20
2019-06-27T07:59:10.016Z,53828.10
2019-06-27T08:01:38.711Z,53834.18
2019-06-27T08:04:07.314Z,53852.44
2019-06-27T08:06:35.955Z,53840.27
2019-06-27T08:09:04.986Z,53848.39
2019-06-27T08:11:33.645Z,53830.13
2019-06-27T08:14:02.337Z,53821.00
2019-06-27T08:16:30.990Z,53847.37
2019-06-27T08:18:59.725Z,53832.16
2019-06-27T08:21:28.371Z,53840.27
2019-06-27T08:23:57.025Z,53833.17
2019-06-27T08:26:25.653Z,53832.16
2019-06-27T08:28:54.365Z,53828.10
2019-06-27T08:31:22.983Z,53827.08
2019-06-27T08:33:51.720Z,53844.33
2019-06-27T08:36:20.405Z,53810.86
2019-06-27T08:38:49.115Z,53864.61
2019-06-27T08:41:17.775Z,53840.27
2019-06-27T08:43:46.426Z,53842.30
2019-06-27T08:46:15.035Z,53819.98
2019-06-27T08:48:43.810Z,53826.07
2019-06-27T08:51:12.585Z,53834.18
2019-06-27T08:53:41.224Z,53833.17
2019-06-27T08:56:09.937Z,53827.08
2019-06-27T08:58:38.595Z,53815.93
2019-06-27T09:01:07.230Z,53795.64
2019-06-27T09:03:35.850Z,53811.87
2019-06-27T09:06:04.671Z,53817.95
2019-06-27T09:08:33.314Z,53817.95
2019-06-27T09:11:01.943Z,53811.87
2019-06-27T09:13:30.644Z,53812.88
2019-06-27T09:15:59.249Z,53816.94
2019-06-27T09:18:27.903Z,53825.05
2019-06-27T09:20:56.521Z,53824.04
2019-06-27T09:23:25.180Z,53821.00
2019-06-27T09:25:53.892Z,53825.05
2019-06-27T09:28:22.568Z,53800.71
2019-06-27T09:30:51.494Z,53821.00
2019-06-27T09:33:20.267Z,53828.10
2019-06-27T09:35:48.948Z,53822.01
2019-06-27T09:38:17.630Z,53836.21
2019-06-27T09:40:46.275Z,53793.61
2019-06-27T09:43:14.890Z,53821.00
2019-06-27T09:45:43.513Z,53815.93
2019-06-27T09:48:12.135Z,53791.58
2019-06-27T09:50:40.821Z,53831.14
2019-06-27T09:53:09.428Z,53819.98
2019-06-27T09:55:38.100Z,53788.54
2019-06-27T09:58:06.864Z,53807.81
2019-06-27T10:00:35.566Z,53800.71
2019-06-27T10:03:04.258Z,53813.89
2019-06-27T10:05:32.893Z,53806.80
2019-06-27T10:08:01.614Z,53815.93
2019-06-27T10:10:30.326Z,53803.75
2019-06-27T10:12:59.007Z,53783.46
2019-06-27T10:15:27.709Z,53818.97
2019-06-27T10:17:56.419Z,53809.84
2019-06-27T10:20:25.144Z,53799.70
2019-06-27T10:22:53.743Z,53790.57
2019-06-27T10:25:22.359Z,53803.75
2019-06-27T10:27:50.984Z,53793.61
2019-06-27T10:30:21.218Z,53809.84
2019-06-27T10:32:58.840Z,53799.70
2019-06-27T10:35:20.172Z,53804.77
2019-06-27T10:37:48.787Z,53786.51
2019-06-27T10:40:17.511Z,53801.72
2019-06-27T10:42:46.145Z,53792.59
2019-06-27T10:45:14.914Z,53771.29
2019-06-27T10:47:43.622Z,53789.55
2019-06-27T10:50:12.481Z,53805.78
2019-06-27T10:52:41.090Z,53795.64
2019-06-27T10:55:10.083Z,53785.50
2019-06-27T10:57:38.686Z,53793.61
2019-06-27T11:00:07.650Z,53819.98
2019-06-27T11:02:36.344Z,53806.80
2019-06-27T11:05:05.242Z,53797.66
2019-06-27T11:07:33.878Z,53800.71
2019-06-27T11:10:02.532Z,53793.61
2019-06-27T11:12:31.177Z,53789.55
2019-06-27T11:15:00.016Z,53793.61
2019-06-27T11:17:28.672Z,53775.35
2019-06-27T11:19:57.326Z,53784.48
2019-06-27T11:22:25.966Z,53775.35
2019-06-27T11:24:54.578Z,53788.54
2019-06-27T11:27:27.022Z,53786.51
2019-06-27T11:29:53.733Z,53776.36
2019-06-27T11:32:22.322Z,53777.38
2019-06-27T11:34:50.944Z,53776.36
2019-06-27T11:37:19.569Z,53764.19
2019-06-27T11:39:48.173Z,53798.68
2019-06-27T11:42:16.846Z,53787.52
2019-06-27T11:44:45.469Z,53783.46
2019-06-27T11:47:14.117Z,53762.16
2019-06-27T11:49:42.885Z,53779.41
2019-06-27T11:52:11.583Z,53801.72
2019-06-27T11:54:40.200Z,53741.87
2019-06-27T11:57:08.810Z,53782.45
2019-06-27T11:59:37.420Z,53779.41
2019-06-27T12:02:06.169Z,53768.25
2019-06-27T12:04:34.806Z,53782.45
2019-06-27T12:07:03.434Z,53756.08
2019-06-27T12:09:32.078Z,53765.21
2019-06-27T12:12:00.747Z,53763.18
2019-06-27T12:14:29.545Z,53736.80
2019-06-27T12:16:58.318Z,53773.32
2019-06-27T12:19:26.875Z,53766.22
2019-06-27T12:21:55.507Z,53784.48
2019-06-27T12:24:24.161Z,53769.27
2019-06-27T12:26:52.799Z,53746.95
2019-06-27T12:29:21.437Z,53759.12
2019-06-27T12:31:51.738Z,53731.73
2019-06-27T12:34:21.315Z,53776.36
2019-06-27T12:36:49.941Z,53766.22
2019-06-27T12:39:18.568Z,53764.19
2019-06-27T12:41:47.196Z,53755.06
2019-06-27T12:44:15.890Z,53736.80
2019-06-27T12:46:44.606Z,53761.15
2019-06-27T12:49:13.339Z,53746.95
2019-06-27T12:51:41.962Z,53760.13
2019-06-27T12:54:10.594Z,53749.99
2019-06-27T12:56:39.259Z,53771.29
2019-06-27T12:59:07.955Z,53759.12
2019-06-27T13:01:36.575Z,53735.79
2019-06-27T13:04:13.483Z,53752.02
2019-06-27T13:06:35.735Z,53754.05
2019-06-27T13:09:05.286Z,53760.13
2019-06-27T13:11:34.035Z,53759.12
2019-06-27T13:14:02.754Z,53742.89
2019-06-27T13:16:31.459Z,53748.98
2019-06-27T13:19:00.165Z,53743.91
2019-06-27T13:21:28.954Z,53752.02
2019-06-27T13:23:57.712Z,53756.08
2019-06-27T13:26:26.399Z,53771.29
2019-06-27T13:28:55.002Z,53726.66
2019-06-27T13:31:23.694Z,53745.93
2019-06-27T13:33:52.279Z,53732.75
2019-06-27T13:36:21.033Z,53735.79
2019-06-27T13:38:49.740Z,53712.46
2019-06-27T13:41:18.360Z,53722.60
2019-06-27T13:43:49.358Z,53723.62
2019-06-27T13:46:17.450Z,53741.87
2019-06-27T13:48:46.087Z,53730.72
2019-06-27T13:51:14.917Z,53719.56
2019-06-27T13:53:43.523Z,53716.52
2019-06-27T13:56:12.171Z,53724.63
2019-06-27T13:58:40.881Z,53713.48
2019-06-27T14:01:11.002Z,53738.83
2019-06-27T14:03:49.362Z,53733.76
2019-06-27T14:06:10.068Z,53713.48
2019-06-27T14:08:38.710Z,53739.85
2019-06-27T14:11:07.485Z,53744.92
2019-06-27T14:13:36.057Z,53741.87
2019-06-27T14:16:06.093Z,53740.86
2019-06-27T14:18:34.968Z,53740.86
2019-06-27T14:21:03.613Z,53718.55
2019-06-27T14:23:32.229Z,53732.75
2019-06-27T14:26:00.886Z,53717.53
2019-06-27T14:28:29.519Z,53730.72
2019-06-27T14:30:58.258Z,53725.65
2019-06-27T14:33:27.000Z,53709.42
2019-06-27T14:35:55.753Z,53736.80
2019-06-27T14:38:24.351Z,53712.46
2019-06-27T14:40:53.062Z,53724.63
2019-06-27T14:43:21.771Z,53709.42
2019-06-27T14:45:50.487Z,53721.59
2019-06-27T14:48:19.063Z,53727.68
2019-06-27T14:50:47.690Z,53719.56
2019-06-27T14:53:16.462Z,53715.50
2019-06-27T14:55:45.069Z,53722.60
2019-06-27T14:58:13.702Z,53697.25
2019-06-27T15:00:42.343Z,53720.57
2019-06-27T15:03:10.976Z,53722.60
2019-06-27T15:05:39.669Z,53721.59
2019-06-27T15:08:08.406Z,53714.49
2019-06-27T15:10:37.049Z,53705.36
2019-06-27T15:13:05.752Z,53717.53
2019-06-27T15:15:34.547Z,53721.59
2019-06-27T15:18:03.328Z,53709.42
2019-06-27T15:20:32.006Z,53722.60
2019-06-27T15:23:00.803Z,53715.50
2019-06-27T15:25:29.524Z,53708.40
2019-06-27T15:27:58.343Z,53725.65
2019-06-27T15:30:27.111Z,53685.07
2019-06-27T15:32:55.882Z,53722.60
2019-06-27T15:35:24.634Z,53734.78
2019-06-27T15:37:53.241Z,53706.37
2019-06-27T15:40:22.130Z,53729.70
2019-06-27T15:42:52.483Z,53716.52
2019-06-27T15:45:21.201Z,53723.62
2019-06-27T15:47:49.951Z,53733.76
2019-06-27T15:50:18.670Z,53690.14
2019-06-27T15:52:47.472Z,53704.34
2019-06-27T15:55:16.186Z,53711.45
2019-06-27T15:57:44.804Z,53731.73
2019-06-27T16:00:13.753Z,53713.48
2019-06-27T16:02:42.466Z,53741.87
2019-06-27T16:05:11.642Z,53715.50
2019-06-27T16:07:40.301Z,53720.57
2019-06-27T16:10:09.510Z,53701.30
2019-06-27T16:12:38.474Z,53712.46
2019-06-27T16:15:07.229Z,53717.53
2019-06-27T16:17:35.895Z,53720.57
2019-06-27T16:20:04.842Z,53734.78
2019-06-27T16:22:33.470Z,53720.57
2019-06-27T16:25:02.463Z,53708.40
2019-06-27T16:27:31.371Z,53705.36
2019-06-27T16:29:59.949Z,53722.60
2019-06-27T16:32:28.641Z,53702.32
2019-06-27T16:34:57.299Z,53704.34
2019-06-27T16:37:25.938Z,53706.37
2019-06-27T16:39:54.662Z,53703.33
2019-06-27T16:42:23.369Z,53705.36
2019-06-27T16:44:52.169Z,53702.32
2019-06-27T16:47:20.833Z,53717.53
2019-06-27T16:49:49.536Z,53711.45
2019-06-27T16:52:18.426Z,53701.30
2019-06-27T16:54:47.097Z,53715.50
2019-06-27T16:57:15.912Z,53706.37
2019-06-27T16:59:44.606Z,53705.36
2019-06-27T17:02:13.251Z,53683.04
2019-06-27T17:04:42.005Z,53676.96
2019-06-27T17:07:10.734Z,53683.04
2019-06-27T17:09:39.407Z,53697.25
2019-06-27T17:12:08.041Z,53658.70
2019-06-27T17:14:36.762Z,53677.97
2019-06-27T17:17:05.424Z,53683.04
2019-06-27T17:19:34.149Z,53676.96
2019-06-27T17:22:02.901Z,53646.53
2019-06-27T17:24:31.566Z,53638.41
2019-06-27T17:27:00.193Z,53658.70
2019-06-27T17:29:28.841Z,53632.33
2019-06-27T17:31:57.453Z,53674.93
2019-06-27T17:34:26.150Z,53666.82
2019-06-27T17:36:57.758Z,53647.54
2019-06-27T17:39:25.198Z,53664.79
2019-06-27T17:41:53.846Z,53652.61
2019-06-27T17:44:22.505Z,53645.52
2019-06-27T17:46:51.216Z,53666.82
2019-06-27T17:49:19.859Z,53655.66
2019-06-27T17:51:48.678Z,53663.77
2019-06-27T17:54:17.293Z,53670.87
2019-06-27T17:56:45.969Z,53660.73
2019-06-27T17:59:14.662Z,53695.22
2019-06-27T18:01:43.369Z,53697.25
2019-06-27T18:04:12.000Z,53703.33
2019-06-27T18:06:40.663Z,53689.13
2019-06-27T18:09:09.398Z,53706.37
2019-06-27T18:11:38.244Z,53709.42
2019-06-27T18:14:07.245Z,53719.56
2019-06-27T18:16:35.991Z,53714.49
2019-06-27T18:19:04.885Z,53721.59
2019-06-27T18:21:33.534Z,53718.55
2019-06-27T18:24:02.216Z,53725.65
2019-06-27T18:26:48.532Z,53726.66
2019-06-27T18:29:17.279Z,53734.78
2019-06-27T18:31:46.010Z,53734.78
2019-06-27T18:34:14.655Z,53731.73
2019-06-27T18:36:43.332Z,53731.73
2019-06-27T18:39:11.948Z,53771.29
2019-06-27T18:41:40.573Z,53753.04
2019-06-27T18:44:09.261Z,53743.91
2019-06-27T18:46:37.941Z,53739.85
2019-06-27T18:49:06.644Z,53747.96
2019-06-27T18:51:35.342Z,53758.11
2019-06-27T18:54:06.455Z,53763.18
2019-06-27T18:56:35.091Z,53755.06
2019-06-27T18:59:03.858Z,53759.12
2019-06-27T19:01:32.485Z,53772.30
2019-06-27T19:04:01.385Z,53760.13
2019-06-27T19:06:30.251Z,53772.30
2019-06-27T19:08:58.927Z,53788.54
2019-06-27T19:11:53.220Z,53760.13
2019-06-27T19:14:23.203Z,53781.44
2019-06-27T19:16:54.774Z,53763.18
2019-06-27T19:19:28.189Z,53755.06
2019-06-27T19:22:16.867Z,53760.13
2019-06-27T19:24:51.742Z,53755.06
2019-06-27T19:27:22.667Z,53801.72
2019-06-27T19:29:51.453Z,53777.38
2019-06-27T19:32:20.248Z,53744.92
2019-06-27T19:34:49.274Z,53808.82
2019-06-27T19:37:18.002Z,53773.32
2019-06-27T19:39:46.851Z,53780.42
2019-06-27T19:42:17.115Z,53784.48
2019-06-27T19:44:46.975Z,53782.45
2019-06-27T19:47:15.815Z,53775.35
2019-06-27T19:49:53.034Z,53786.51
2019-06-27T19:52:22.664Z,53799.70
2019-06-27T19:54:51.411Z,53789.55
2019-06-27T19:57:22.375Z,53798.68
2019-06-27T19:59:51.507Z,53802.74
2019-06-27T20:02:20.332Z,53795.64
2019-06-27T20:04:49.049Z,53817.95
2019-06-27T20:07:17.885Z,53808.82
2019-06-27T20:09:46.697Z,53780.42
2019-06-27T20:12:15.453Z,53800.71
2019-06-27T20:14:44.352Z,53799.70
2019-06-27T20:17:13.251Z,53810.86
2019-06-27T20:19:42.096Z,53785.50
2019-06-27T20:22:11.008Z,53788.54
2019-06-27T20:24:39.745Z,53811.87
2019-06-27T20:27:10.539Z,53809.84
2019-06-27T20:29:51.045Z,53799.70
2019-06-27T20:32:20.104Z,53812.88
2019-06-27T20:34:48.877Z,53812.88
2019-06-27T20:37:27.238Z,53800.71
2019-06-27T20:39:54.216Z,53823.03
2019-06-27T20:42:24.439Z,53812.88
2019-06-27T20:44:53.252Z,53837.23
2019-06-27T20:47:21.944Z,53810.86
2019-06-27T20:49:50.866Z,53819.98
2019-06-27T20:52:19.596Z,53835.20
2019-06-27T20:54:50.796Z,53793.61
2019-06-27T20:57:22.926Z,53838.24
2019-06-27T20:59:51.772Z,53840.27
2019-06-27T21:02:20.522Z,53834.18
2019-06-27T21:04:53.510Z,53802.74
2019-06-27T21:07:22.281Z,53806.80
2019-06-27T21:09:51.217Z,53830.13
2019-06-27T21:12:19.897Z,53838.24
2019-06-27T21:14:50.871Z,53821.00
2019-06-27T21:17:19.654Z,53826.07
2019-06-27T21:19:48.389Z,53830.13
2019-06-27T21:22:17.210Z,53849.40
2019-06-27T21:24:53.727Z,53836.21
2019-06-27T21:27:22.520Z,53826.07
2019-06-27T21:29:51.275Z,53840.27
2019-06-27T21:32:30.933Z,53824.04
2019-06-27T21:34:50.510Z,53839.25
2019-06-27T21:37:19.295Z,53837.23
2019-06-27T21:39:48.114Z,53836.21
2019-06-27T21:42:16.956Z,53819.98
2019-06-27T21:44:45.911Z,53830.13
2019-06-27T21:47:14.753Z,53814.91
2019-06-27T21:49:43.453Z,53828.10
2019-06-27T21:52:13.531Z,53852.44
2019-06-27T21:54:42.318Z,53823.03
2019-06-27T21:57:11.197Z,53832.16
2019-06-27T21:59:39.975Z,53847.37
2019-06-27T22:02:08.925Z,53843.31
2019-06-27T22:04:37.966Z,53874.76
2019-06-27T22:07:06.792Z,53851.43
2019-06-27T22:09:35.551Z,53836.21
2019-06-27T22:12:04.376Z,53835.20
2019-06-27T22:14:33.191Z,53854.47
2019-06-27T22:17:02.071Z,53817.95
2019-06-27T22:19:30.819Z,53851.43
2019-06-27T22:21:59.582Z,53849.40
2019-06-27T22:24:28.419Z,53842.30
2019-06-27T22:26:57.218Z,53869.69
2019-06-27T22:29:25.856Z,53846.36
2019-06-27T22:31:55.914Z,53883.89
2019-06-27T22:34:24.662Z,53846.36
2019-06-27T22:36:56.572Z,53841.29
2019-06-27T22:39:42.796Z,53842.30
2019-06-27T22:42:29.103Z,53858.53
2019-06-27T22:45:15.740Z,53856.50
2019-06-27T22:48:02.006Z,53850.41
2019-06-27T22:50:44.559Z,53872.73
2019-06-27T22:53:15.545Z,53853.46
2019-06-27T22:55:44.326Z,53872.73
2019-06-27T22:58:12.944Z,53894.03
2019-06-27T23:00:41.645Z,53846.36
2019-06-27T23:03:10.362Z,53845.34
2019-06-27T23:05:38.980Z,53851.43
2019-06-27T23:08:07.764Z,53877.80
2019-06-27T23:10:36.373Z,53861.57
2019-06-27T23:13:05.072Z,53861.57
2019-06-27T23:15:33.819Z,53886.93
2019-06-27T23:18:02.519Z,53871.71
2019-06-27T23:20:31.234Z,53866.64
2019-06-27T23:22:59.881Z,53849.40
2019-06-27T23:25:28.493Z,53857.52
2019-06-27T23:27:57.122Z,53876.79
2019-06-27T23:30:25.744Z,53844.33
2019-06-27T23:32:54.391Z,53847.37
2019-06-27T23:35:23.006Z,53864.61
2019-06-27T23:37:51.653Z,53896.06
2019-06-27T23:40:20.567Z,53860.56
2019-06-27T23:42:49.198Z,53872.73
2019-06-27T23:45:17.859Z,53879.83
2019-06-27T23:47:46.519Z,53874.76
2019-06-27T23:50:15.316Z,53897.07
2019-06-27T23:52:43.946Z,53877.80
2019-06-27T23:55:12.556Z,53852.44
2019-06-27T23:57:41.254Z,53886.93
